sensor_id;sensor_type;location;lat;lon;timestamp;pressure;altitude;pressure_sealevel;temperature;humidity
11343;BME280;5726;42.160;24.746;2022-09-09T00:06:45;99733.47;;;22.03;75.32
11343;BME280;5726;42.160;24.746;2022-09-09T00:09:21;99735.13;;;22.07;74.45
11343;BME280;5726;42.160;24.746;2022-09-09T00:17:09;99742.50;;;22.22;71.87
11343;BME280;5726;42.160;24.746;2022-09-09T00:19:46;99731.28;;;22.27;71.53
11343;BME280;5726;42.160;24.746;2022-09-09T00:22:20;99732.56;;;22.33;71.33
11343;BME280;5726;42.160;24.746;2022-09-09T00:25:19;99727.63;;;22.38;71.61
11343;BME280;5726;42.160;24.746;2022-09-09T00:27:45;99735.25;;;22.29;71.57
11343;BME280;5726;42.160;24.746;2022-09-09T00:30:16;99733.94;;;22.23;71.83
11343;BME280;5726;42.160;24.746;2022-09-09T00:32:45;99741.56;;;22.33;71.52
11343;BME280;5726;42.160;24.746;2022-09-09T00:35:18;99752.06;;;22.31;71.60
11343;BME280;5726;42.160;24.746;2022-09-09T00:37:48;99760.19;;;22.28;71.83
11343;BME280;5726;42.160;24.746;2022-09-09T00:42:54;99750.56;;;22.34;71.70
11343;BME280;5726;42.160;24.746;2022-09-09T00:48:10;99739.91;;;22.29;72.24
11343;BME280;5726;42.160;24.746;2022-09-09T00:50:50;99741.56;;;22.33;72.35
11343;BME280;5726;42.160;24.746;2022-09-09T00:56:12;99749.38;;;22.16;72.87
11343;BME280;5726;42.160;24.746;2022-09-09T00:58:47;99743.47;;;22.14;72.95
11343;BME280;5726;42.160;24.746;2022-09-09T01:01:18;99751.22;;;22.12;72.97
11343;BME280;5726;42.160;24.746;2022-09-09T01:03:52;99751.50;;;22.22;72.74
11343;BME280;5726;42.160;24.746;2022-09-09T01:06:34;99748.91;;;22.29;72.44
11343;BME280;5726;42.160;24.746;2022-09-09T01:09:24;99744.06;;;22.23;72.50
11343;BME280;5726;42.160;24.746;2022-09-09T01:12:02;99747.38;;;22.51;69.90
11343;BME280;5726;42.160;24.746;2022-09-09T01:17:08;99752.94;;;22.20;71.01
11343;BME280;5726;42.160;24.746;2022-09-09T01:22:33;99747.97;;;22.22;70.69
11343;BME280;5726;42.160;24.746;2022-09-09T01:28:01;99750.81;;;21.60;73.53
11343;BME280;5726;42.160;24.746;2022-09-09T01:30:28;99744.91;;;21.74;73.08
11343;BME280;5726;42.160;24.746;2022-09-09T01:32:56;99748.28;;;21.67;73.54
11343;BME280;5726;42.160;24.746;2022-09-09T01:37:58;99738.94;;;21.53;74.56
11343;BME280;5726;42.160;24.746;2022-09-09T01:40:24;99745.19;;;21.23;76.30
11343;BME280;5726;42.160;24.746;2022-09-09T01:42:51;99738.41;;;21.32;75.58
11343;BME280;5726;42.160;24.746;2022-09-09T01:45:17;99727.97;;;21.50;74.97
11343;BME280;5726;42.160;24.746;2022-09-09T01:47:42;99741.13;;;21.32;76.18
11343;BME280;5726;42.160;24.746;2022-09-09T01:50:11;99734.38;;;21.26;77.11
11343;BME280;5726;42.160;24.746;2022-09-09T01:52:38;99734.38;;;21.42;75.86
11343;BME280;5726;42.160;24.746;2022-09-09T01:55:04;99734.31;;;21.54;75.44
11343;BME280;5726;42.160;24.746;2022-09-09T01:57:34;99733.06;;;21.36;75.79
11343;BME280;5726;42.160;24.746;2022-09-09T02:00:12;99740.63;;;21.42;74.57
11343;BME280;5726;42.160;24.746;2022-09-09T02:02:48;99748.91;;;21.46;73.99
11343;BME280;5726;42.160;24.746;2022-09-09T02:05:36;99734.44;;;21.60;72.80
11343;BME280;5726;42.160;24.746;2022-09-09T02:08:09;99738.22;;;21.71;71.08
11343;BME280;5726;42.160;24.746;2022-09-09T02:13:21;99742.34;;;21.81;70.07
11343;BME280;5726;42.160;24.746;2022-09-09T02:16:03;99742.09;;;21.70;71.07
11343;BME280;5726;42.160;24.746;2022-09-09T02:18:40;99735.63;;;21.60;71.97
11343;BME280;5726;42.160;24.746;2022-09-09T02:21:11;99733.41;;;21.50;72.59
11343;BME280;5726;42.160;24.746;2022-09-09T02:23:37;99737.19;;;21.30;73.50
11343;BME280;5726;42.160;24.746;2022-09-09T02:26:05;99733.34;;;21.46;72.79
11343;BME280;5726;42.160;24.746;2022-09-09T02:28:34;99737.88;;;21.42;73.35
11343;BME280;5726;42.160;24.746;2022-09-09T02:31:01;99727.31;;;21.56;73.39
11343;BME280;5726;42.160;24.746;2022-09-09T02:33:30;99728.13;;;21.26;74.89
11343;BME280;5726;42.160;24.746;2022-09-09T02:36:00;99728.94;;;20.96;77.44
11343;BME280;5726;42.160;24.746;2022-09-09T02:38:30;99737.09;;;21.11;77.21
11343;BME280;5726;42.160;24.746;2022-09-09T02:40:57;99737.00;;;21.38;76.42
11343;BME280;5726;42.160;24.746;2022-09-09T02:43:24;99732.78;;;21.41;76.65
11343;BME280;5726;42.160;24.746;2022-09-09T02:49:01;99743.69;;;21.41;77.14
11343;BME280;5726;42.160;24.746;2022-09-09T02:56:21;99749.50;;;21.39;76.23
11343;BME280;5726;42.160;24.746;2022-09-09T02:58:50;99743.97;;;21.51;75.45
11343;BME280;5726;42.160;24.746;2022-09-09T03:01:17;99748.66;;;21.51;75.15
11343;BME280;5726;42.160;24.746;2022-09-09T03:03:42;99749.25;;;21.60;73.88
11343;BME280;5726;42.160;24.746;2022-09-09T03:06:10;99753.56;;;21.60;73.30
11343;BME280;5726;42.160;24.746;2022-09-09T03:08:37;99746.25;;;21.64;73.90
11343;BME280;5726;42.160;24.746;2022-09-09T03:11:02;99744.66;;;21.63;74.11
11343;BME280;5726;42.160;24.746;2022-09-09T03:13:28;99740.50;;;21.69;74.52
11343;BME280;5726;42.160;24.746;2022-09-09T03:15:54;99743.94;;;21.66;74.79
11343;BME280;5726;42.160;24.746;2022-09-09T03:18:19;99743.09;;;21.62;74.96
11343;BME280;5726;42.160;24.746;2022-09-09T03:20:46;99749.75;;;21.65;74.78
11343;BME280;5726;42.160;24.746;2022-09-09T03:23:13;99758.50;;;21.55;75.78
11343;BME280;5726;42.160;24.746;2022-09-09T03:25:39;99764.47;;;21.45;76.69
11343;BME280;5726;42.160;24.746;2022-09-09T03:28:04;99765.47;;;21.53;76.46
11343;BME280;5726;42.160;24.746;2022-09-09T03:30:30;99764.75;;;21.56;76.36
11343;BME280;5726;42.160;24.746;2022-09-09T03:32:56;99758.59;;;21.59;76.47
11343;BME280;5726;42.160;24.746;2022-09-09T03:35:22;99774.59;;;21.60;76.35
11343;BME280;5726;42.160;24.746;2022-09-09T03:37:47;99782.44;;;21.61;76.43
11343;BME280;5726;42.160;24.746;2022-09-09T03:40:13;99779.19;;;21.56;76.96
11343;BME280;5726;42.160;24.746;2022-09-09T03:42:39;99774.84;;;21.70;76.24
11343;BME280;5726;42.160;24.746;2022-09-09T03:45:09;99776.00;;;21.69;76.59
11343;BME280;5726;42.160;24.746;2022-09-09T03:47:35;99779.31;;;21.78;76.30
11343;BME280;5726;42.160;24.746;2022-09-09T03:50:01;99777.44;;;21.48;77.40
11343;BME280;5726;42.160;24.746;2022-09-09T03:52:28;99768.06;;;21.34;77.89
11343;BME280;5726;42.160;24.746;2022-09-09T03:54:54;99779.47;;;21.51;76.78
11343;BME280;5726;42.160;24.746;2022-09-09T03:57:21;99780.66;;;21.23;78.36
11343;BME280;5726;42.160;24.746;2022-09-09T03:59:46;99774.38;;;20.92;80.46
11343;BME280;5726;42.160;24.746;2022-09-09T04:02:12;99773.41;;;21.00;80.19
11343;BME280;5726;42.160;24.746;2022-09-09T04:04:37;99772.06;;;20.78;80.92
11343;BME280;5726;42.160;24.746;2022-09-09T04:07:03;99769.94;;;20.72;82.06
11343;BME280;5726;42.160;24.746;2022-09-09T04:09:31;99770.47;;;20.77;82.04
11343;BME280;5726;42.160;24.746;2022-09-09T04:11:56;99773.41;;;21.00;81.54
11343;BME280;5726;42.160;24.746;2022-09-09T04:14:22;99767.22;;;21.30;80.36
11343;BME280;5726;42.160;24.746;2022-09-09T04:16:47;99769.91;;;21.45;79.62
11343;BME280;5726;42.160;24.746;2022-09-09T04:19:13;99770.03;;;21.49;79.38
11343;BME280;5726;42.160;24.746;2022-09-09T04:21:40;99768.88;;;21.65;78.99
11343;BME280;5726;42.160;24.746;2022-09-09T04:24:07;99763.72;;;21.94;77.72
11343;BME280;5726;42.160;24.746;2022-09-09T04:26:33;99760.63;;;22.30;76.01
11343;BME280;5726;42.160;24.746;2022-09-09T04:28:59;99760.75;;;22.56;74.56
11343;BME280;5726;42.160;24.746;2022-09-09T04:31:25;99766.06;;;22.86;73.66
11343;BME280;5726;42.160;24.746;2022-09-09T04:33:51;99761.56;;;23.16;71.94
11343;BME280;5726;42.160;24.746;2022-09-09T04:36:17;99764.31;;;23.42;70.80
11343;BME280;5726;42.160;24.746;2022-09-09T04:38:43;99773.75;;;23.66;69.22
11343;BME280;5726;42.160;24.746;2022-09-09T04:41:09;99764.91;;;24.02;68.27
11343;BME280;5726;42.160;24.746;2022-09-09T04:43:37;99769.38;;;24.13;67.77
11343;BME280;5726;42.160;24.746;2022-09-09T04:46:03;99771.63;;;24.34;66.53
11343;BME280;5726;42.160;24.746;2022-09-09T04:48:29;99784.75;;;24.21;67.27
11343;BME280;5726;42.160;24.746;2022-09-09T04:51:04;99789.09;;;24.22;66.14
11343;BME280;5726;42.160;24.746;2022-09-09T04:53:30;99788.41;;;23.77;67.36
11343;BME280;5726;42.160;24.746;2022-09-09T04:56:10;99794.06;;;23.21;69.79
11343;BME280;5726;42.160;24.746;2022-09-09T04:58:37;99797.00;;;22.90;71.79
11343;BME280;5726;42.160;24.746;2022-09-09T05:01:07;99800.81;;;23.05;70.65
11343;BME280;5726;42.160;24.746;2022-09-09T05:03:33;99803.34;;;22.94;71.79
11343;BME280;5726;42.160;24.746;2022-09-09T05:06:05;99796.56;;;23.07;71.10
11343;BME280;5726;42.160;24.746;2022-09-09T05:08:31;99799.53;;;23.21;70.05
11343;BME280;5726;42.160;24.746;2022-09-09T05:10:57;99797.69;;;23.06;69.38
11343;BME280;5726;42.160;24.746;2022-09-09T05:13:24;99801.03;;;22.77;70.56
11343;BME280;5726;42.160;24.746;2022-09-09T05:15:54;99799.50;;;22.08;73.05
11343;BME280;5726;42.160;24.746;2022-09-09T05:18:19;99790.03;;;22.02;74.52
11343;BME280;5726;42.160;24.746;2022-09-09T05:20:45;99786.38;;;22.48;72.74
11343;BME280;5726;42.160;24.746;2022-09-09T05:23:10;99789.22;;;22.92;69.84
11343;BME280;5726;42.160;24.746;2022-09-09T05:25:39;99782.00;;;23.03;69.98
11343;BME280;5726;42.160;24.746;2022-09-09T05:28:06;99786.00;;;23.28;68.87
11343;BME280;5726;42.160;24.746;2022-09-09T05:30:33;99784.09;;;23.76;66.25
11343;BME280;5726;42.160;24.746;2022-09-09T05:32:59;99778.63;;;23.76;66.27
11343;BME280;5726;42.160;24.746;2022-09-09T05:35:24;99791.88;;;23.74;66.37
11343;BME280;5726;42.160;24.746;2022-09-09T05:37:50;99788.00;;;23.75;66.09
11343;BME280;5726;42.160;24.746;2022-09-09T05:40:15;99783.19;;;23.95;65.04
11343;BME280;5726;42.160;24.746;2022-09-09T05:42:41;99789.78;;;23.64;66.25
11343;BME280;5726;42.160;24.746;2022-09-09T05:45:08;99791.50;;;23.53;67.50
11343;BME280;5726;42.160;24.746;2022-09-09T05:47:34;99802.41;;;23.98;65.52
11343;BME280;5726;42.160;24.746;2022-09-09T05:50:01;99793.63;;;24.37;64.12
11343;BME280;5726;42.160;24.746;2022-09-09T05:52:26;99790.75;;;24.30;63.80
11343;BME280;5726;42.160;24.746;2022-09-09T05:54:52;99789.31;;;23.40;67.30
11343;BME280;5726;42.160;24.746;2022-09-09T05:57:19;99789.09;;;23.71;66.29
11343;BME280;5726;42.160;24.746;2022-09-09T05:59:45;99785.38;;;23.82;66.53
11343;BME280;5726;42.160;24.746;2022-09-09T06:02:10;99788.97;;;24.15;65.98
11343;BME280;5726;42.160;24.746;2022-09-09T06:04:37;99780.72;;;24.70;63.52
11343;BME280;5726;42.160;24.746;2022-09-09T06:07:04;99779.97;;;25.06;61.61
11343;BME280;5726;42.160;24.746;2022-09-09T06:09:30;99767.94;;;25.21;60.63
11343;BME280;5726;42.160;24.746;2022-09-09T06:11:56;99772.13;;;25.51;59.27
11343;BME280;5726;42.160;24.746;2022-09-09T06:14:23;99773.84;;;25.66;58.53
11343;BME280;5726;42.160;24.746;2022-09-09T06:16:51;99771.28;;;25.47;59.00
11343;BME280;5726;42.160;24.746;2022-09-09T06:19:16;99770.63;;;25.60;58.12
11343;BME280;5726;42.160;24.746;2022-09-09T06:21:42;99769.19;;;25.73;58.52
11343;BME280;5726;42.160;24.746;2022-09-09T06:24:10;99764.53;;;25.77;58.78
11343;BME280;5726;42.160;24.746;2022-09-09T06:26:38;99768.78;;;25.71;58.02
11343;BME280;5726;42.160;24.746;2022-09-09T06:29:06;99762.06;;;25.65;58.38
11343;BME280;5726;42.160;24.746;2022-09-09T06:31:34;99758.84;;;26.10;57.23
11343;BME280;5726;42.160;24.746;2022-09-09T06:34:00;99770.34;;;25.72;57.61
11343;BME280;5726;42.160;24.746;2022-09-09T06:36:35;99774.09;;;25.50;58.68
11343;BME280;5726;42.160;24.746;2022-09-09T06:39:02;99785.75;;;25.37;59.06
11343;BME280;5726;42.160;24.746;2022-09-09T06:41:30;99781.41;;;24.97;60.70
11343;BME280;5726;42.160;24.746;2022-09-09T06:43:56;99780.50;;;25.22;60.46
11343;BME280;5726;42.160;24.746;2022-09-09T06:46:23;99769.69;;;25.43;59.28
11343;BME280;5726;42.160;24.746;2022-09-09T06:48:53;99776.84;;;25.50;59.54
11343;BME280;5726;42.160;24.746;2022-09-09T06:51:22;99783.78;;;25.84;59.02
11343;BME280;5726;42.160;24.746;2022-09-09T06:53:50;99783.78;;;25.41;59.73
11343;BME280;5726;42.160;24.746;2022-09-09T06:58:42;99779.81;;;25.35;61.22
11343;BME280;5726;42.160;24.746;2022-09-09T07:01:13;99778.59;;;25.72;59.94
11343;BME280;5726;42.160;24.746;2022-09-09T07:03:39;99779.63;;;26.11;59.55
11343;BME280;5726;42.160;24.746;2022-09-09T07:06:06;99781.38;;;26.36;59.17
11343;BME280;5726;42.160;24.746;2022-09-09T07:08:33;99783.09;;;26.68;59.25
11343;BME280;5726;42.160;24.746;2022-09-09T07:11:06;99783.91;;;26.72;59.14
11343;BME280;5726;42.160;24.746;2022-09-09T07:13:32;99777.97;;;26.70;58.43
11343;BME280;5726;42.160;24.746;2022-09-09T07:16:08;99781.56;;;26.88;57.09
11343;BME280;5726;42.160;24.746;2022-09-09T07:18:34;99781.50;;;26.67;57.20
11343;BME280;5726;42.160;24.746;2022-09-09T07:21:00;99787.81;;;26.75;57.12
11343;BME280;5726;42.160;24.746;2022-09-09T07:23:27;99784.41;;;27.05;56.56
11343;BME280;5726;42.160;24.746;2022-09-09T07:25:53;99777.75;;;27.17;55.82
11343;BME280;5726;42.160;24.746;2022-09-09T07:28:22;99783.28;;;27.38;54.69
11343;BME280;5726;42.160;24.746;2022-09-09T07:30:59;99783.31;;;27.51;55.49
11343;BME280;5726;42.160;24.746;2022-09-09T07:33:25;99781.72;;;27.44;55.33
11343;BME280;5726;42.160;24.746;2022-09-09T07:35:51;99774.22;;;27.37;54.67
11343;BME280;5726;42.160;24.746;2022-09-09T07:38:18;99778.88;;;26.98;55.58
11343;BME280;5726;42.160;24.746;2022-09-09T07:40:45;99775.41;;;27.26;55.24
11343;BME280;5726;42.160;24.746;2022-09-09T07:43:10;99769.91;;;27.40;54.40
11343;BME280;5726;42.160;24.746;2022-09-09T07:45:37;99774.66;;;27.53;53.98
11343;BME280;5726;42.160;24.746;2022-09-09T07:48:03;99762.00;;;27.90;52.74
11343;BME280;5726;42.160;24.746;2022-09-09T07:50:29;99765.97;;;27.82;53.13
11343;BME280;5726;42.160;24.746;2022-09-09T07:52:55;99765.53;;;28.01;53.05
11343;BME280;5726;42.160;24.746;2022-09-09T07:55:21;99762.03;;;27.80;52.83
11343;BME280;5726;42.160;24.746;2022-09-09T07:57:51;99760.03;;;27.91;52.18
11343;BME280;5726;42.160;24.746;2022-09-09T08:00:16;99756.50;;;27.97;52.34
11343;BME280;5726;42.160;24.746;2022-09-09T08:02:44;99758.81;;;28.05;51.64
11343;BME280;5726;42.160;24.746;2022-09-09T08:05:09;99765.16;;;27.92;52.12
11343;BME280;5726;42.160;24.746;2022-09-09T08:07:35;99751.75;;;28.15;51.22
11343;BME280;5726;42.160;24.746;2022-09-09T08:10:01;99747.00;;;28.22;51.57
11343;BME280;5726;42.160;24.746;2022-09-09T08:12:27;99749.00;;;28.11;52.00
11343;BME280;5726;42.160;24.746;2022-09-09T08:14:52;99744.59;;;28.35;51.45
11343;BME280;5726;42.160;24.746;2022-09-09T08:17:19;99744.13;;;28.53;50.37
11343;BME280;5726;42.160;24.746;2022-09-09T08:19:45;99750.88;;;28.39;49.90
11343;BME280;5726;42.160;24.746;2022-09-09T08:22:10;99750.16;;;28.03;50.72
11343;BME280;5726;42.160;24.746;2022-09-09T08:24:36;99747.97;;;28.66;49.50
11343;BME280;5726;42.160;24.746;2022-09-09T08:27:01;99745.25;;;28.70;49.45
11343;BME280;5726;42.160;24.746;2022-09-09T08:29:27;99746.06;;;28.60;50.01
11343;BME280;5726;42.160;24.746;2022-09-09T08:31:55;99737.00;;;28.56;49.68
11343;BME280;5726;42.160;24.746;2022-09-09T08:34:23;99739.56;;;28.94;49.32
11343;BME280;5726;42.160;24.746;2022-09-09T08:36:49;99731.78;;;28.75;49.23
11343;BME280;5726;42.160;24.746;2022-09-09T08:39:17;99740.78;;;28.90;49.63
11343;BME280;5726;42.160;24.746;2022-09-09T08:52:28;99723.53;;;29.76;47.20
11343;BME280;5726;42.160;24.746;2022-09-09T08:55:05;99730.25;;;28.74;48.78
11343;BME280;5726;42.160;24.746;2022-09-09T08:57:38;99726.53;;;28.98;48.84
11343;BME280;5726;42.160;24.746;2022-09-09T09:00:04;99729.31;;;28.94;48.42
11343;BME280;5726;42.160;24.746;2022-09-09T09:03:28;99724.50;;;29.05;48.73
11343;BME280;5726;42.160;24.746;2022-09-09T09:05:48;99728.28;;;29.29;48.31
11343;BME280;5726;42.160;24.746;2022-09-09T09:08:27;99713.97;;;29.41;46.70
11343;BME280;5726;42.160;24.746;2022-09-09T09:10:57;99719.63;;;29.27;46.99
11343;BME280;5726;42.160;24.746;2022-09-09T09:16:32;99706.81;;;29.50;47.10
11343;BME280;5726;42.160;24.746;2022-09-09T09:19:00;99706.91;;;29.40;46.95
11343;BME280;5726;42.160;24.746;2022-09-09T09:21:41;99707.00;;;29.26;47.56
11343;BME280;5726;42.160;24.746;2022-09-09T09:27:21;99695.88;;;29.36;47.15
11343;BME280;5726;42.160;24.746;2022-09-09T09:29:51;99678.53;;;28.82;48.59
11343;BME280;5726;42.160;24.746;2022-09-09T09:32:20;99682.84;;;28.86;48.96
11343;BME280;5726;42.160;24.746;2022-09-09T09:34:53;99677.91;;;29.11;48.29
11343;BME280;5726;42.160;24.746;2022-09-09T09:37:32;99675.63;;;28.99;48.53
11343;BME280;5726;42.160;24.746;2022-09-09T09:40:15;99666.78;;;29.18;48.65
11343;BME280;5726;42.160;24.746;2022-09-09T09:42:57;99666.75;;;28.71;49.47
11343;BME280;5726;42.160;24.746;2022-09-09T09:45:32;99669.44;;;28.81;48.71
11343;BME280;5726;42.160;24.746;2022-09-09T09:48:04;99669.25;;;29.09;48.50
11343;BME280;5726;42.160;24.746;2022-09-09T09:50:31;99666.03;;;29.14;48.20
11343;BME280;5726;42.160;24.746;2022-09-09T09:53:03;99663.03;;;28.98;48.77
11343;BME280;5726;42.160;24.746;2022-09-09T09:55:34;99651.16;;;28.97;48.65
11343;BME280;5726;42.160;24.746;2022-09-09T09:58:05;99657.47;;;29.01;48.99
11343;BME280;5726;42.160;24.746;2022-09-09T10:00:32;99659.69;;;29.17;48.55
11343;BME280;5726;42.160;24.746;2022-09-09T10:03:00;99649.00;;;29.22;48.71
11343;BME280;5726;42.160;24.746;2022-09-09T10:05:29;99649.63;;;28.96;48.64
11343;BME280;5726;42.160;24.746;2022-09-09T10:08:10;99638.75;;;29.19;48.39
11343;BME280;5726;42.160;24.746;2022-09-09T10:16:13;99628.50;;;28.73;49.98
11343;BME280;5726;42.160;24.746;2022-09-09T10:30:16;99632.25;;;28.96;50.97
11343;BME280;5726;42.160;24.746;2022-09-09T10:35:30;99627.66;;;28.79;51.16
11343;BME280;5726;42.160;24.746;2022-09-09T10:38:34;99627.50;;;29.00;50.39
11343;BME280;5726;42.160;24.746;2022-09-09T10:57:11;99610.66;;;29.31;50.32
11343;BME280;5726;42.160;24.746;2022-09-09T10:59:44;99604.97;;;29.45;49.78
11343;BME280;5726;42.160;24.746;2022-09-09T11:02:25;99601.91;;;29.40;50.20
11343;BME280;5726;42.160;24.746;2022-09-09T11:07:40;99593.75;;;29.62;50.35
11343;BME280;5726;42.160;24.746;2022-09-09T11:13:10;99587.28;;;29.39;50.76
11343;BME280;5726;42.160;24.746;2022-09-09T11:15:43;99586.91;;;29.37;50.15
11343;BME280;5726;42.160;24.746;2022-09-09T11:18:15;99590.44;;;29.41;51.00
11343;BME280;5726;42.160;24.746;2022-09-09T11:20:46;99579.44;;;29.34;50.54
11343;BME280;5726;42.160;24.746;2022-09-09T11:23:22;99572.03;;;29.28;50.67
11343;BME280;5726;42.160;24.746;2022-09-09T11:25:55;99579.34;;;29.44;50.59
11343;BME280;5726;42.160;24.746;2022-09-09T11:34:24;99558.13;;;29.68;50.28
11343;BME280;5726;42.160;24.746;2022-09-09T11:44:41;99562.34;;;30.09;48.85
11343;BME280;5726;42.160;24.746;2022-09-09T11:47:26;99557.38;;;29.97;48.78
11343;BME280;5726;42.160;24.746;2022-09-09T11:50:10;99559.16;;;29.84;48.82
11343;BME280;5726;42.160;24.746;2022-09-09T11:53:04;99554.66;;;29.93;48.65
11343;BME280;5726;42.160;24.746;2022-09-09T11:55:32;99545.03;;;29.72;49.39
11343;BME280;5726;42.160;24.746;2022-09-09T11:58:14;99545.53;;;29.96;48.58
11343;BME280;5726;42.160;24.746;2022-09-09T12:06:20;99531.03;;;29.89;49.41
11343;BME280;5726;42.160;24.746;2022-09-09T12:08:55;99528.59;;;30.21;48.82
11343;BME280;5726;42.160;24.746;2022-09-09T12:11:29;99519.44;;;30.24;48.87
11343;BME280;5726;42.160;24.746;2022-09-09T12:13:58;99508.91;;;30.41;47.78
11343;BME280;5726;42.160;24.746;2022-09-09T12:16:33;99512.75;;;29.95;48.83
11343;BME280;5726;42.160;24.746;2022-09-09T12:19:14;99511.56;;;29.96;49.32
11343;BME280;5726;42.160;24.746;2022-09-09T12:24:13;99503.03;;;30.62;48.09
11343;BME280;5726;42.160;24.746;2022-09-09T12:26:51;99505.88;;;30.36;48.51
11343;BME280;5726;42.160;24.746;2022-09-09T12:29:38;99502.00;;;30.27;48.89
11343;BME280;5726;42.160;24.746;2022-09-09T12:32:16;99504.88;;;30.46;48.28
11343;BME280;5726;42.160;24.746;2022-09-09T12:34:47;99498.97;;;30.18;48.38
11343;BME280;5726;42.160;24.746;2022-09-09T12:37:49;99495.19;;;30.08;48.70
11343;BME280;5726;42.160;24.746;2022-09-09T12:40:22;99496.63;;;30.16;49.14
11343;BME280;5726;42.160;24.746;2022-09-09T12:42:48;99496.53;;;30.23;48.98
11343;BME280;5726;42.160;24.746;2022-09-09T12:45:24;99496.53;;;30.23;49.64
11343;BME280;5726;42.160;24.746;2022-09-09T12:50:27;99486.09;;;30.34;48.78
11343;BME280;5726;42.160;24.746;2022-09-09T12:53:14;99488.66;;;30.22;48.73
11343;BME280;5726;42.160;24.746;2022-09-09T12:55:50;99477.69;;;30.15;49.12
11343;BME280;5726;42.160;24.746;2022-09-09T12:58:18;99478.34;;;30.22;49.89
11343;BME280;5726;42.160;24.746;2022-09-09T13:00:52;99477.41;;;30.32;49.05
11343;BME280;5726;42.160;24.746;2022-09-09T13:03:19;99470.88;;;30.23;49.17
11343;BME280;5726;42.160;24.746;2022-09-09T13:05:46;99458.06;;;30.06;49.78
11343;BME280;5726;42.160;24.746;2022-09-09T13:08:13;99454.53;;;30.05;49.23
11343;BME280;5726;42.160;24.746;2022-09-09T13:10:51;99460.47;;;30.04;49.30
11343;BME280;5726;42.160;24.746;2022-09-09T13:13:22;99469.09;;;30.09;50.75
11343;BME280;5726;42.160;24.746;2022-09-09T13:15:59;99452.38;;;30.42;49.40
11343;BME280;5726;42.160;24.746;2022-09-09T13:18:29;99449.00;;;30.28;49.46
11343;BME280;5726;42.160;24.746;2022-09-09T13:20:55;99443.03;;;30.33;49.63
11343;BME280;5726;42.160;24.746;2022-09-09T13:23:26;99442.00;;;30.46;49.47
11343;BME280;5726;42.160;24.746;2022-09-09T13:25:56;99438.09;;;30.44;49.74
11343;BME280;5726;42.160;24.746;2022-09-09T13:28:24;99445.91;;;30.49;48.73
11343;BME280;5726;42.160;24.746;2022-09-09T13:30:59;99448.09;;;30.38;49.82
11343;BME280;5726;42.160;24.746;2022-09-09T13:33:30;99441.88;;;30.31;50.05
11343;BME280;5726;42.160;24.746;2022-09-09T13:36:00;99434.41;;;30.50;49.57
11343;BME280;5726;42.160;24.746;2022-09-09T13:38:29;99436.44;;;30.92;48.27
11343;BME280;5726;42.160;24.746;2022-09-09T13:41:00;99435.56;;;30.30;49.47
11343;BME280;5726;42.160;24.746;2022-09-09T13:43:59;99418.06;;;30.37;49.96
11343;BME280;5726;42.160;24.746;2022-09-09T13:46:39;99425.59;;;30.33;49.75
11343;BME280;5726;42.160;24.746;2022-09-09T13:51:45;99416.97;;;30.53;48.90
11343;BME280;5726;42.160;24.746;2022-09-09T13:54:14;99413.28;;;30.41;49.51
11343;BME280;5726;42.160;24.746;2022-09-09T13:56:41;99412.75;;;30.68;49.07
11343;BME280;5726;42.160;24.746;2022-09-09T13:59:19;99414.34;;;30.66;48.48
11343;BME280;5726;42.160;24.746;2022-09-09T14:01:45;99403.97;;;30.28;49.44
11343;BME280;5726;42.160;24.746;2022-09-09T14:04:11;99408.56;;;30.38;49.61
11343;BME280;5726;42.160;24.746;2022-09-09T14:06:38;99407.03;;;30.33;50.27
11343;BME280;5726;42.160;24.746;2022-09-09T14:09:10;99405.66;;;30.22;50.18
11343;BME280;5726;42.160;24.746;2022-09-09T14:11:35;99410.09;;;30.16;49.95
11343;BME280;5726;42.160;24.746;2022-09-09T14:14:01;99408.59;;;29.85;50.17
11343;BME280;5726;42.160;24.746;2022-09-09T14:16:27;99414.78;;;29.96;50.16
11343;BME280;5726;42.160;24.746;2022-09-09T14:18:53;99398.44;;;30.28;49.77
11343;BME280;5726;42.160;24.746;2022-09-09T14:21:21;99405.66;;;30.22;49.75
11343;BME280;5726;42.160;24.746;2022-09-09T14:23:46;99405.47;;;30.09;50.29
11343;BME280;5726;42.160;24.746;2022-09-09T14:26:13;99411.84;;;29.80;51.14
11343;BME280;5726;42.160;24.746;2022-09-09T14:28:38;99404.78;;;29.76;51.73
11343;BME280;5726;42.160;24.746;2022-09-09T14:31:05;99410.53;;;29.62;51.88
11343;BME280;5726;42.160;24.746;2022-09-09T14:33:30;99396.91;;;29.74;52.47
11343;BME280;5726;42.160;24.746;2022-09-09T14:35:57;99390.47;;;29.84;51.44
11343;BME280;5726;42.160;24.746;2022-09-09T14:38:23;99389.34;;;29.78;51.80
11343;BME280;5726;42.160;24.746;2022-09-09T14:40:48;99404.34;;;29.81;51.75
11343;BME280;5726;42.160;24.746;2022-09-09T14:43:13;99412.03;;;29.66;52.58
11343;BME280;5726;42.160;24.746;2022-09-09T14:45:40;99402.44;;;29.74;52.58
11343;BME280;5726;42.160;24.746;2022-09-09T14:48:05;99389.22;;;29.89;51.82
11343;BME280;5726;42.160;24.746;2022-09-09T14:50:30;99387.13;;;29.96;51.33
11343;BME280;5726;42.160;24.746;2022-09-09T14:52:56;99380.13;;;29.88;51.01
11343;BME280;5726;42.160;24.746;2022-09-09T14:55:21;99382.81;;;29.65;51.64
11343;BME280;5726;42.160;24.746;2022-09-09T14:57:47;99386.25;;;29.73;51.06
11343;BME280;5726;42.160;24.746;2022-09-09T15:00:12;99384.66;;;29.75;51.10
11343;BME280;5726;42.160;24.746;2022-09-09T15:02:38;99389.81;;;29.73;51.54
11343;BME280;5726;42.160;24.746;2022-09-09T15:05:04;99394.88;;;29.52;52.30
11343;BME280;5726;42.160;24.746;2022-09-09T15:07:29;99388.03;;;29.34;53.05
11343;BME280;5726;42.160;24.746;2022-09-09T15:09:57;99390.50;;;29.25;53.48
11343;BME280;5726;42.160;24.746;2022-09-09T15:12:23;99383.22;;;29.38;53.33
11343;BME280;5726;42.160;24.746;2022-09-09T15:14:49;99393.69;;;29.20;53.91
11343;BME280;5726;42.160;24.746;2022-09-09T15:17:16;99392.72;;;29.37;53.23
11343;BME280;5726;42.160;24.746;2022-09-09T15:19:41;99386.03;;;29.34;53.68
11343;BME280;5726;42.160;24.746;2022-09-09T15:22:08;99392.25;;;29.42;53.37